createdAt,value
2022-09-11T00:01:08.692Z,99364.47
2022-09-11T00:03:37.430Z,99363.59
2022-09-11T00:06:07.061Z,99369.50
2022-09-11T00:08:35.715Z,99354.38
2022-09-11T00:11:05.747Z,99353.47
2022-09-11T00:13:37.053Z,99347.59
2022-09-11T00:16:07.172Z,99345.88
2022-09-11T00:18:36.594Z,99344.16
2022-09-11T00:21:05.501Z,99349.19
2022-09-11T00:23:33.372Z,99346.59
2022-09-11T00:26:03.466Z,99343.22
2022-09-11T00:28:31.789Z,99337.34
2022-09-11T00:31:03.029Z,99329.84
2022-09-11T00:33:31.216Z,99339.94
2022-09-11T00:36:01.973Z,99326.47
2022-09-11T00:38:32.002Z,99329.00
2022-09-11T00:41:02.329Z,99336.53
2022-09-11T00:43:50.017Z,99327.22
2022-09-11T00:46:19.712Z,99339.09
2022-09-11T00:48:50.063Z,99331.56
2022-09-11T00:51:23.112Z,99329.03
2022-09-11T00:53:52.736Z,99326.50
2022-09-11T00:56:21.676Z,99318.91
2022-09-11T00:58:51.752Z,99323.97
2022-09-11T01:01:20.967Z,99324.78
2022-09-11T01:03:49.492Z,99324.78
2022-09-11T01:06:18.054Z,99331.56
2022-09-11T01:08:45.859Z,99333.28
2022-09-11T01:11:27.426Z,99338.41
2022-09-11T01:14:03.092Z,99331.69
2022-09-11T01:16:40.305Z,99329.13
2022-09-11T01:19:21.877Z,99329.94
2022-09-11T01:22:15.881Z,99327.34
2022-09-11T01:25:03.880Z,99332.41
2022-09-11T01:27:52.097Z,99328.19
2022-09-11T01:30:22.211Z,99322.25
2022-09-11T01:33:07.226Z,99330.66
2022-09-11T01:35:43.060Z,99318.03
2022-09-11T01:38:18.520Z,99330.59
2022-09-11T01:40:53.921Z,99330.56
2022-09-11T01:43:28.926Z,99318.78
2022-09-11T01:45:59.610Z,99324.66
2022-09-11T01:48:32.608Z,99325.53
2022-09-11T01:51:03.497Z,99329.81
2022-09-11T01:53:37.412Z,99325.63
2022-09-11T01:56:10.898Z,99330.66
2022-09-11T01:58:43.487Z,99326.44
2022-09-11T02:01:16.610Z,99323.00
2022-09-11T02:03:49.428Z,99328.88
2022-09-11T02:06:22.552Z,99325.53
2022-09-11T02:08:54.441Z,99325.53
2022-09-11T02:11:24.659Z,99324.69
2022-09-11T02:14:00.846Z,99320.44
2022-09-11T02:16:40.565Z,99320.44
2022-09-11T02:19:12.858Z,99318.84
2022-09-11T02:21:41.516Z,99322.28
2022-09-11T02:24:10.691Z,99319.00
2022-09-11T02:26:45.005Z,99318.28
2022-09-11T02:29:15.151Z,99319.13
2022-09-11T02:31:43.701Z,99315.78
2022-09-11T02:34:13.949Z,99306.50
2022-09-11T02:36:56.325Z,99311.53
2022-09-11T02:39:36.579Z,99313.19
2022-09-11T02:42:22.930Z,99317.41
2022-09-11T02:45:02.153Z,99314.88
2022-09-11T02:47:43.125Z,99314.03
2022-09-11T02:50:23.671Z,99319.94
2022-09-11T02:52:59.640Z,99325.81
2022-09-11T02:55:36.971Z,99313.09
2022-09-11T02:58:10.963Z,99309.69
2022-09-11T03:00:41.807Z,99301.31
2022-09-11T03:03:10.149Z,99311.50
2022-09-11T03:05:40.224Z,99314.03
2022-09-11T03:08:08.473Z,99312.34
2022-09-11T03:10:38.529Z,99318.25
2022-09-11T03:13:09.380Z,99322.50
2022-09-11T03:15:37.429Z,99317.47
2022-09-11T03:18:06.865Z,99312.47
2022-09-11T03:20:34.828Z,99304.06
2022-09-11T03:23:05.281Z,99306.56
2022-09-11T03:25:33.184Z,99315.00
2022-09-11T03:28:04.674Z,99319.19
2022-09-11T03:30:35.135Z,99322.59
2022-09-11T03:33:03.095Z,99320.06
2022-09-11T03:35:32.457Z,99305.75
2022-09-11T03:38:00.488Z,99308.28
2022-09-11T03:40:28.313Z,99315.84
2022-09-11T03:42:56.143Z,99313.31
2022-09-11T03:45:23.958Z,99317.50
2022-09-11T03:47:52.010Z,99317.50
2022-09-11T03:50:19.832Z,99320.88
2022-09-11T03:52:50.065Z,99324.25
2022-09-11T03:55:18.424Z,99317.50
2022-09-11T03:57:46.262Z,99317.50
2022-09-11T04:00:14.444Z,99322.56
2022-09-11T04:02:48.613Z,99320.91
2022-09-11T04:05:29.269Z,99327.63
2022-09-11T04:07:59.305Z,99327.63
2022-09-11T04:10:27.173Z,99326.69
2022-09-11T04:12:57.714Z,99322.47
2022-09-11T04:15:25.811Z,99318.25
2022-09-11T04:17:53.869Z,99335.94
2022-09-11T04:20:23.265Z,99330.91
2022-09-11T04:22:51.052Z,99337.69
2022-09-11T04:25:20.332Z,99334.34
2022-09-11T04:27:48.141Z,99337.75
2022-09-11T04:30:17.653Z,99336.09
2022-09-11T04:32:46.214Z,99334.41
2022-09-11T04:35:14.392Z,99337.75
2022-09-11T04:37:50.578Z,99332.69
2022-09-11T04:40:19.905Z,99335.16
2022-09-11T04:42:48.228Z,99329.25
2022-09-11T04:45:16.224Z,99335.97
2022-09-11T04:47:44.296Z,99333.47
2022-09-11T04:50:13.925Z,99330.91
2022-09-11T04:52:45.853Z,99333.41
2022-09-11T04:55:13.803Z,99331.66
2022-09-11T04:57:43.021Z,99330.81
2022-09-11T05:00:12.542Z,99328.25
2022-09-11T05:02:40.569Z,99329.06
2022-09-11T05:05:10.181Z,99318.88
2022-09-11T05:07:38.346Z,99318.00
2022-09-11T05:10:08.265Z,99313.72
2022-09-11T05:12:36.154Z,99322.94
2022-09-11T05:15:06.185Z,99313.63
2022-09-11T05:17:34.261Z,99318.59
2022-09-11T05:20:02.737Z,99325.25
2022-09-11T05:22:32.179Z,99320.94
2022-09-11T05:25:02.823Z,99321.75
2022-09-11T05:27:31.364Z,99314.97
2022-09-11T05:29:59.833Z,99319.06
2022-09-11T05:32:32.757Z,99324.06
2022-09-11T05:35:02.848Z,99333.22
2022-09-11T05:37:32.202Z,99339.94
2022-09-11T05:40:00.458Z,99337.56
2022-09-11T05:42:28.610Z,99333.31
2022-09-11T05:44:57.032Z,99326.03
2022-09-11T05:47:28.314Z,99330.31
2022-09-11T05:49:58.493Z,99338.72
2022-09-11T05:52:29.758Z,99336.34
2022-09-11T05:54:58.136Z,99333.72
2022-09-11T05:57:26.897Z,99335.16
2022-09-11T05:59:54.690Z,99337.47
2022-09-11T06:02:22.478Z,99336.56
2022-09-11T06:04:56.671Z,99342.34
2022-09-11T06:07:27.334Z,99328.88
2022-09-11T06:09:57.804Z,99344.88
2022-09-11T06:12:29.020Z,99338.16
2022-09-11T06:14:58.564Z,99333.16
2022-09-11T06:17:26.483Z,99344.00
2022-09-11T06:19:54.459Z,99349.84
2022-09-11T06:22:23.084Z,99348.13
2022-09-11T06:24:55.415Z,99345.53
2022-09-11T06:27:25.090Z,99348.84
2022-09-11T06:29:55.418Z,99349.59
2022-09-11T06:32:23.238Z,99346.22
2022-09-11T06:34:52.225Z,99345.41
2022-09-11T06:37:20.126Z,99349.63
2022-09-11T06:39:48.429Z,99344.59
2022-09-11T06:42:24.598Z,99341.25
2022-09-11T06:44:52.678Z,99338.78
2022-09-11T06:47:21.588Z,99350.59
2022-09-11T06:49:50.042Z,99336.41
2022-09-11T06:52:28.086Z,99352.38
2022-09-11T06:55:25.137Z,99335.72
2022-09-11T06:58:02.186Z,99349.22
2022-09-11T07:00:32.223Z,99350.91
2022-09-11T07:03:02.078Z,99345.78
2022-09-11T07:05:31.133Z,99345.81
2022-09-11T07:08:01.811Z,99357.63
2022-09-11T07:10:34.180Z,99355.00
2022-09-11T07:13:04.672Z,99359.16
2022-09-11T07:15:33.016Z,99356.50
2022-09-11T07:18:02.588Z,99366.63
2022-09-11T07:20:31.591Z,99360.00
2022-09-11T07:22:59.659Z,99356.56
2022-09-11T07:25:30.143Z,99365.13
2022-09-11T07:27:58.027Z,99356.84
2022-09-11T07:30:27.851Z,99360.09
2022-09-11T07:32:57.385Z,99354.84
2022-09-11T07:35:25.483Z,99358.03
2022-09-11T07:37:54.500Z,99362.06
2022-09-11T07:40:26.492Z,99361.03
2022-09-11T07:42:54.644Z,99366.84
2022-09-11T07:45:23.168Z,99361.66
2022-09-11T07:47:53.480Z,99374.34
2022-09-11T07:50:24.260Z,99364.97
2022-09-11T07:52:52.284Z,99371.56
2022-09-11T07:55:21.229Z,99363.84
2022-09-11T07:57:51.970Z,99358.63
2022-09-11T08:00:20.125Z,99361.00
2022-09-11T08:02:48.620Z,99370.16
2022-09-11T08:05:24.053Z,99366.69
2022-09-11T08:07:52.526Z,99364.13
2022-09-11T08:10:27.717Z,99370.47
2022-09-11T08:12:59.903Z,99367.56
2022-09-11T08:15:31.444Z,99374.22
2022-09-11T08:18:00.289Z,99371.38
2022-09-11T08:20:33.548Z,99361.06
2022-09-11T08:23:02.188Z,99369.25
2022-09-11T08:25:30.182Z,99369.25
2022-09-11T08:27:59.999Z,99366.78
2022-09-11T08:30:28.525Z,99368.59
2022-09-11T08:32:56.356Z,99357.63
2022-09-11T08:35:24.192Z,99354.91
2022-09-11T08:37:55.031Z,99349.78
2022-09-11T08:40:23.774Z,99348.09
2022-09-11T08:42:53.265Z,99357.63
2022-09-11T08:45:24.601Z,99361.22
2022-09-11T08:47:57.011Z,99356.50
2022-09-11T08:50:27.516Z,99359.06
2022-09-11T08:52:59.281Z,99369.47
2022-09-11T08:55:39.400Z,99367.09
2022-09-11T08:58:18.273Z,99374.00
2022-09-11T09:00:55.688Z,99368.25
2022-09-11T09:03:38.983Z,99363.22
2022-09-11T09:06:21.413Z,99370.75
2022-09-11T09:09:04.566Z,99370.66
2022-09-11T09:11:41.767Z,99357.00
2022-09-11T09:14:29.389Z,99354.50
2022-09-11T09:17:03.357Z,99347.81
2022-09-11T09:19:40.797Z,99360.56
2022-09-11T09:22:15.103Z,99360.50
2022-09-11T09:24:49.613Z,99362.97
2022-09-11T09:27:21.398Z,99358.84
2022-09-11T09:29:55.653Z,99366.34
2022-09-11T09:32:32.268Z,99366.25
2022-09-11T09:35:06.385Z,99373.72
2022-09-11T09:37:35.007Z,99361.19
2022-09-11T09:40:09.158Z,99352.72
2022-09-11T09:43:10.992Z,99359.31
2022-09-11T09:45:53.142Z,99358.28
2022-09-11T09:48:21.601Z,99349.47
2022-09-11T09:50:49.698Z,99350.00
2022-09-11T09:53:27.318Z,99348.31
2022-09-11T09:55:57.159Z,99343.69
2022-09-11T09:58:29.702Z,99339.03
2022-09-11T10:00:57.530Z,99339.66
2022-09-11T10:03:26.388Z,99340.22
2022-09-11T10:05:56.219Z,99331.72
2022-09-11T10:08:31.294Z,99321.09
2022-09-11T10:11:02.368Z,99327.06
2022-09-11T10:13:32.853Z,99319.72
2022-09-11T10:16:03.891Z,99336.69
2022-09-11T10:18:37.573Z,99339.63
2022-09-11T10:21:21.138Z,99349.50
2022-09-11T10:23:51.693Z,99351.63
2022-09-11T10:26:27.291Z,99331.22
2022-09-11T10:28:57.593Z,99336.19
2022-09-11T10:31:26.238Z,99331.75
2022-09-11T10:33:57.321Z,99328.09
2022-09-11T10:36:28.043Z,99337.44
2022-09-11T10:38:58.425Z,99337.00
2022-09-11T10:41:32.165Z,99342.94
2022-09-11T10:44:04.243Z,99341.41
2022-09-11T10:46:40.848Z,99338.00
2022-09-11T10:49:17.476Z,99327.78
2022-09-11T10:52:01.782Z,99322.06
2022-09-11T10:54:45.843Z,99316.31
2022-09-11T10:57:23.520Z,99321.44
2022-09-11T11:00:02.124Z,99312.47
2022-09-11T11:02:33.062Z,99307.53
2022-09-11T11:05:04.611Z,99314.31
2022-09-11T11:07:54.319Z,99312.94
2022-09-11T11:10:35.691Z,99311.56
2022-09-11T11:13:16.293Z,99321.41
2022-09-11T11:15:59.394Z,99310.41
2022-09-11T11:18:39.447Z,99313.78
2022-09-11T11:21:20.628Z,99318.31
2022-09-11T11:24:02.842Z,99310.97
2022-09-11T11:26:45.454Z,99311.81
2022-09-11T11:29:37.988Z,99322.13
2022-09-11T11:32:27.009Z,99302.06
2022-09-11T11:35:12.322Z,99306.19
2022-09-11T11:37:42.857Z,99322.34
2022-09-11T11:40:20.916Z,99310.03
2022-09-11T11:42:56.055Z,99307.66
2022-09-11T11:45:31.805Z,99314.28
2022-09-11T11:48:00.762Z,99287.13
2022-09-11T11:50:35.572Z,99309.00
2022-09-11T11:53:12.308Z,99303.81
2022-09-11T11:55:47.972Z,99300.59
2022-09-11T11:58:24.106Z,99292.19
2022-09-11T12:01:01.610Z,99301.47
2022-09-11T12:03:37.437Z,99297.28
2022-09-11T12:06:07.458Z,99312.50
2022-09-11T12:08:43.259Z,99309.06
2022-09-11T12:11:13.766Z,99303.00
2022-09-11T12:13:44.913Z,99299.44
2022-09-11T12:16:19.089Z,99308.56
2022-09-11T12:19:08.631Z,99299.94
2022-09-11T12:22:21.232Z,99306.25
2022-09-11T12:24:59.040Z,99297.69
2022-09-11T12:27:54.025Z,99273.06
2022-09-11T12:30:26.540Z,99279.66
2022-09-11T12:32:57.250Z,99282.53
2022-09-11T12:35:34.794Z,99283.88
2022-09-11T12:38:13.164Z,99281.59
2022-09-11T12:40:50.497Z,99284.25
2022-09-11T12:43:29.774Z,99285.59
2022-09-11T12:45:58.008Z,99267.38
2022-09-11T12:48:38.646Z,99288.72
2022-09-11T12:51:16.437Z,99282.31
2022-09-11T12:53:47.204Z,99286.97
2022-09-11T12:56:19.244Z,99283.16
2022-09-11T12:58:47.908Z,99284.91
2022-09-11T13:01:22.769Z,99287.34
2022-09-11T13:04:01.002Z,99286.47
2022-09-11T13:06:40.691Z,99291.66
2022-09-11T13:09:17.555Z,99286.09
2022-09-11T13:11:48.021Z,99288.56
2022-09-11T13:14:52.299Z,99295.81
2022-09-11T13:17:30.165Z,99294.38
2022-09-11T13:20:20.605Z,99306.56
2022-09-11T13:22:49.039Z,99285.84
2022-09-11T13:25:19.216Z,99268.66
2022-09-11T13:27:50.928Z,99265.22
2022-09-11T13:30:21.563Z,99257.66
2022-09-11T13:32:52.138Z,99266.47
2022-09-11T13:35:25.635Z,99251.78
2022-09-11T13:37:59.492Z,99271.81
2022-09-11T13:40:31.723Z,99267.97
2022-09-11T13:43:00.794Z,99260.91
2022-09-11T13:45:28.957Z,99269.25
2022-09-11T13:47:57.913Z,99275.81
2022-09-11T13:50:27.536Z,99267.34
2022-09-11T13:52:55.941Z,99262.56
2022-09-11T13:55:27.168Z,99257.59
2022-09-11T13:57:58.456Z,99264.66
2022-09-11T14:00:44.796Z,99259.06
2022-09-11T14:03:21.468Z,99269.78
2022-09-11T14:05:56.374Z,99273.72
2022-09-11T14:08:32.462Z,99272.53
2022-09-11T14:11:07.069Z,99270.22
2022-09-11T14:13:43.411Z,99268.09
2022-09-11T14:16:22.531Z,99271.66
2022-09-11T14:18:53.884Z,99258.47
2022-09-11T14:21:26.969Z,99271.16
2022-09-11T14:23:56.769Z,99268.00
2022-09-11T14:26:25.963Z,99276.56
2022-09-11T14:29:02.909Z,99263.00
2022-09-11T14:31:33.968Z,99260.88
2022-09-11T14:34:19.605Z,99269.78
2022-09-11T14:36:58.966Z,99268.03
2022-09-11T14:39:34.655Z,99262.50
2022-09-11T14:42:03.272Z,99260.34
2022-09-11T14:44:32.148Z,99263.44
2022-09-11T14:46:59.944Z,99271.56
2022-09-11T14:49:29.549Z,99270.28
2022-09-11T14:52:00.266Z,99276.66
2022-09-11T14:54:31.069Z,99270.34
2022-09-11T14:56:59.500Z,99264.59
2022-09-11T14:59:29.054Z,99278.50
2022-09-11T15:01:58.425Z,99283.91
2022-09-11T15:04:27.395Z,99288.25
2022-09-11T15:06:56.453Z,99302.75
2022-09-11T15:09:25.674Z,99311.47
2022-09-11T15:11:53.456Z,99315.38
2022-09-11T15:14:38.490Z,99309.00
2022-09-11T15:17:11.762Z,99323.75
2022-09-11T15:19:39.749Z,99317.28
2022-09-11T15:22:08.478Z,99316.56
2022-09-11T15:24:37.648Z,99346.22
2022-09-11T15:27:05.969Z,99335.28
2022-09-11T15:29:34.425Z,99339.41
2022-09-11T15:32:03.418Z,99334.28
2022-09-11T15:34:33.127Z,99341.94
2022-09-11T15:37:01.123Z,99332.13
2022-09-11T15:39:29.220Z,99329.72
2022-09-11T15:41:59.203Z,99328.28
2022-09-11T15:44:28.790Z,99325.81
2022-09-11T15:46:58.692Z,99351.97
2022-09-11T15:49:28.388Z,99342.75
2022-09-11T15:51:56.368Z,99341.69
2022-09-11T15:54:24.785Z,99339.97
2022-09-11T15:56:53.407Z,99341.59
2022-09-11T15:59:22.783Z,99348.38
2022-09-11T16:01:50.895Z,99349.19
2022-09-11T16:04:23.037Z,99345.88
2022-09-11T16:06:53.609Z,99337.50
2022-09-11T16:09:23.969Z,99330.69
2022-09-11T16:11:52.951Z,99341.44
2022-09-11T16:14:24.516Z,99348.19
2022-09-11T16:16:53.325Z,99345.59
2022-09-11T16:19:22.852Z,99343.81
2022-09-11T16:21:51.354Z,99335.31
2022-09-11T16:24:19.170Z,99348.16
2022-09-11T16:26:47.165Z,99344.78
2022-09-11T16:29:17.968Z,99338.84
2022-09-11T16:31:47.128Z,99338.75
2022-09-11T16:34:17.605Z,99353.38
2022-09-11T16:36:46.157Z,99347.72
2022-09-11T16:39:16.477Z,99342.00
2022-09-11T16:41:44.624Z,99344.41
2022-09-11T16:44:14.808Z,99345.28
2022-09-11T16:46:43.364Z,99351.22
2022-09-11T16:49:16.441Z,99351.34
2022-09-11T16:51:45.767Z,99356.44
2022-09-11T16:54:13.655Z,99359.03
2022-09-11T16:56:45.890Z,99353.22
2022-09-11T16:59:15.608Z,99348.97
2022-09-11T17:01:43.627Z,99349.75
2022-09-11T17:04:12.849Z,99350.59
2022-09-11T17:06:40.644Z,99347.19
2022-09-11T17:09:08.455Z,99348.22
2022-09-11T17:11:37.136Z,99353.44
2022-09-11T17:14:05.319Z,99356.88
2022-09-11T17:16:35.597Z,99348.47
2022-09-11T17:19:03.579Z,99360.28
2022-09-11T17:21:35.783Z,99361.13
2022-09-11T17:24:05.626Z,99370.41
2022-09-11T17:26:33.703Z,99370.47
2022-09-11T17:29:03.465Z,99367.16
2022-09-11T17:31:32.050Z,99371.50
2022-09-11T17:34:00.008Z,99372.34
2022-09-11T17:36:28.593Z,99370.69
2022-09-11T17:38:59.460Z,99380.81
2022-09-11T17:41:27.403Z,99381.66
2022-09-11T17:43:55.189Z,99384.16
2022-09-11T17:46:24.775Z,99384.88
2022-09-11T17:48:52.761Z,99390.75
2022-09-11T17:51:24.161Z,99388.19
2022-09-11T17:53:55.274Z,99393.22
2022-09-11T17:56:26.203Z,99402.50
2022-09-11T17:58:57.041Z,99395.00
2022-09-11T18:01:26.079Z,99394.34
2022-09-11T18:03:56.575Z,99386.78
2022-09-11T18:06:28.190Z,99396.91
2022-09-11T18:09:00.301Z,99396.09
2022-09-11T18:11:30.060Z,99397.88
2022-09-11T18:13:58.254Z,99394.63
2022-09-11T18:16:26.269Z,99399.69
2022-09-11T18:18:54.325Z,99358.63
2022-09-11T18:21:22.196Z,99409.13
2022-09-11T18:23:50.807Z,99390.56
2022-09-11T18:26:22.017Z,99417.56
2022-09-11T18:28:51.645Z,99414.31
2022-09-11T18:31:20.149Z,99421.94
2022-09-11T18:33:54.532Z,99430.41
2022-09-11T18:36:23.496Z,99419.53
2022-09-11T18:38:51.905Z,99423.75
2022-09-11T18:41:20.370Z,99437.22
2022-09-11T18:43:48.723Z,99437.25
2022-09-11T18:46:17.897Z,99435.56
2022-09-11T18:48:46.271Z,99419.59
2022-09-11T18:51:15.263Z,99431.38
2022-09-11T18:53:43.846Z,99434.75
2022-09-11T18:56:11.977Z,99425.47
2022-09-11T18:58:41.775Z,99425.47
2022-09-11T19:01:12.084Z,99429.69
2022-09-11T19:03:42.260Z,99430.53
2022-09-11T19:06:14.110Z,99433.88
2022-09-11T19:08:44.305Z,99444.81
2022-09-11T19:11:14.953Z,99442.28
2022-09-11T19:13:43.937Z,99433.84
2022-09-11T19:16:12.682Z,99451.53
2022-09-11T19:18:42.049Z,99454.06
2022-09-11T19:21:12.310Z,99446.47
2022-09-11T19:23:41.764Z,99456.53
2022-09-11T19:26:13.032Z,99456.53
2022-09-11T19:28:42.575Z,99452.28
2022-09-11T19:31:12.060Z,99447.19
2022-09-11T19:33:42.897Z,99451.38
2022-09-11T19:36:14.936Z,99433.72
2022-09-11T19:38:42.728Z,99434.56
2022-09-11T19:41:12.714Z,99423.63
2022-09-11T19:43:42.013Z,99424.44
2022-09-11T19:46:12.332Z,99422.75
2022-09-11T19:48:44.262Z,99432.84
2022-09-11T19:51:13.540Z,99437.03
2022-09-11T19:53:42.083Z,99441.28
2022-09-11T19:56:11.150Z,99445.53
2022-09-11T19:58:39.742Z,99449.75
2022-09-11T20:01:09.943Z,99451.47
2022-09-11T20:03:38.487Z,99434.69
2022-09-11T20:06:09.398Z,99456.53
2022-09-11T20:08:38.455Z,99453.22
2022-09-11T20:11:08.561Z,99456.59
2022-09-11T20:13:36.853Z,99458.28
2022-09-11T20:16:05.633Z,99454.91
2022-09-11T20:18:33.767Z,99459.16
2022-09-11T20:21:02.983Z,99455.78
2022-09-11T20:23:32.840Z,99455.78
2022-09-11T20:26:09.557Z,99450.72
2022-09-11T20:28:39.237Z,99447.41
2022-09-11T20:31:13.700Z,99455.81
2022-09-11T20:33:41.685Z,99449.94
2022-09-11T20:36:09.881Z,99450.75
2022-09-11T20:38:39.484Z,99450.75
2022-09-11T20:41:08.381Z,99459.97
2022-09-11T20:43:36.241Z,99454.13
2022-09-11T20:46:04.592Z,99447.38
2022-09-11T20:48:32.665Z,99455.78
2022-09-11T20:51:04.197Z,99456.63
2022-09-11T20:53:32.014Z,99452.44
2022-09-11T20:56:06.976Z,99449.91
2022-09-11T20:58:35.308Z,99453.25
2022-09-11T21:01:03.499Z,99451.56
2022-09-11T21:03:32.041Z,99446.53
2022-09-11T21:06:06.821Z,99449.91
2022-09-11T21:08:34.730Z,99449.91
2022-09-11T21:11:05.272Z,99455.78
2022-09-11T21:13:36.268Z,99460.84
2022-09-11T21:16:07.462Z,99465.03
2022-09-11T21:18:35.531Z,99468.41
2022-09-11T21:21:03.449Z,99467.56
2022-09-11T21:23:31.250Z,99477.69
2022-09-11T21:25:59.360Z,99474.31
2022-09-11T21:28:29.225Z,99470.09
2022-09-11T21:30:58.545Z,99460.00
2022-09-11T21:33:26.488Z,99464.19
2022-09-11T21:35:55.589Z,99482.69
2022-09-11T21:38:25.319Z,99473.47
2022-09-11T21:40:53.141Z,99484.38
2022-09-11T21:43:21.310Z,99484.41
2022-09-11T21:45:50.447Z,99483.56
2022-09-11T21:48:18.348Z,99486.94
2022-09-11T21:50:46.318Z,99492.81
2022-09-11T21:53:14.144Z,99491.13
2022-09-11T21:55:43.447Z,99496.16
2022-09-11T21:58:16.061Z,99497.84
2022-09-11T22:00:44.290Z,99497.84
2022-09-11T22:03:14.584Z,99495.34
2022-09-11T22:05:44.125Z,99497.88
2022-09-11T22:08:12.665Z,99497.88
2022-09-11T22:10:42.842Z,99497.88
2022-09-11T22:13:11.117Z,99511.31
2022-09-11T22:15:41.009Z,99506.25
2022-09-11T22:18:08.908Z,99500.38
2022-09-11T22:20:38.880Z,99507.09
2022-09-11T22:23:07.525Z,99507.09
2022-09-11T22:25:36.788Z,99506.25
2022-09-11T22:28:05.237Z,99503.72
2022-09-11T22:30:33.433Z,99517.19
2022-09-11T22:33:01.613Z,99515.50
2022-09-11T22:35:29.774Z,99509.63
2022-09-11T22:37:58.901Z,99514.66
2022-09-11T22:40:26.712Z,99509.63
2022-09-11T22:42:54.558Z,99507.94
2022-09-11T22:45:22.401Z,99506.25
2022-09-11T22:47:50.203Z,99502.06
2022-09-11T22:50:18.269Z,99504.59
2022-09-11T22:52:46.097Z,99506.25
2022-09-11T22:55:15.466Z,99501.22
2022-09-11T22:57:43.405Z,99516.38
2022-09-11T23:00:14.665Z,99516.38
2022-09-11T23:02:42.498Z,99513.84
2022-09-11T23:05:28.016Z,99505.41
2022-09-11T23:07:55.872Z,99505.44
2022-09-11T23:10:25.417Z,99518.06
2022-09-11T23:12:53.759Z,99510.47
2022-09-11T23:15:22.546Z,99504.59
2022-09-11T23:17:50.350Z,99502.06
2022-09-11T23:20:18.945Z,99499.53
2022-09-11T23:22:46.733Z,99505.41
2022-09-11T23:25:14.804Z,99494.47
2022-09-11T23:27:45.049Z,99511.31
2022-09-11T23:30:13.440Z,99507.09
2022-09-11T23:32:42.024Z,99511.28
2022-09-11T23:35:10.755Z,99507.09
2022-09-11T23:37:42.370Z,99505.41
2022-09-11T23:40:13.157Z,99501.22
2022-09-11T23:42:40.992Z,99506.28
2022-09-11T23:45:12.682Z,99510.47
2022-09-11T23:47:40.954Z,99506.28
2022-09-11T23:50:10.099Z,99506.28
2022-09-11T23:52:39.453Z,99505.44
2022-09-11T23:55:08.283Z,99507.09
2022-09-11T23:57:36.086Z,99496.19
